sensor_id;sensor_type;location;lat;lon;timestamp;P1;durP1;ratioP1;P2;durP2;ratioP2
6149;SDS011;3106;42.670;23.318;2022-10-31T00:01:18;9.90;;;4.13;;
6149;SDS011;3106;42.670;23.318;2022-10-31T00:03:48;13.53;;;4.37;;
6149;SDS011;3106;42.670;23.318;2022-10-31T00:06:34;15.53;;;3.90;;
6149;SDS011;3106;42.670;23.318;2022-10-31T00:09:21;6.27;;;3.87;;
6149;SDS011;3106;42.670;23.318;2022-10-31T00:12:02;10.37;;;4.90;;
6149;SDS011;3106;42.670;23.318;2022-10-31T00:14:36;5.60;;;3.57;;
6149;SDS011;3106;42.670;23.318;2022-10-31T00:17:21;13.70;;;4.27;;
6149;SDS011;3106;42.670;23.318;2022-10-31T00:20:06;8.53;;;4.13;;
6149;SDS011;3106;42.670;23.318;2022-10-31T00:23:00;8.50;;;4.20;;
6149;SDS011;3106;42.670;23.318;2022-10-31T00:25:44;8.93;;;4.83;;
6149;SDS011;3106;42.670;23.318;2022-10-31T00:28:14;7.80;;;4.50;;
6149;SDS011;3106;42.670;23.318;2022-10-31T00:30:41;7.97;;;4.43;;
6149;SDS011;3106;42.670;23.318;2022-10-31T00:33:09;8.70;;;4.17;;
6149;SDS011;3106;42.670;23.318;2022-10-31T00:35:36;7.60;;;4.47;;
6149;SDS011;3106;42.670;23.318;2022-10-31T00:38:04;7.10;;;4.47;;
6149;SDS011;3106;42.670;23.318;2022-10-31T00:40:31;9.67;;;4.53;;
6149;SDS011;3106;42.670;23.318;2022-10-31T00:42:58;10.33;;;4.60;;
6149;SDS011;3106;42.670;23.318;2022-10-31T00:45:25;8.60;;;4.40;;
6149;SDS011;3106;42.670;23.318;2022-10-31T00:47:52;13.20;;;4.90;;
6149;SDS011;3106;42.670;23.318;2022-10-31T00:50:19;8.53;;;3.97;;
6149;SDS011;3106;42.670;23.318;2022-10-31T00:52:46;12.70;;;4.07;;
6149;SDS011;3106;42.670;23.318;2022-10-31T00:55:14;8.07;;;4.57;;
6149;SDS011;3106;42.670;23.318;2022-10-31T00:57:41;15.10;;;4.00;;
6149;SDS011;3106;42.670;23.318;2022-10-31T01:00:10;8.47;;;3.77;;
6149;SDS011;3106;42.670;23.318;2022-10-31T01:02:38;10.80;;;4.80;;
6149;SDS011;3106;42.670;23.318;2022-10-31T01:05:04;5.53;;;4.23;;
6149;SDS011;3106;42.670;23.318;2022-10-31T01:07:35;9.10;;;4.13;;
6149;SDS011;3106;42.670;23.318;2022-10-31T01:10:02;11.40;;;4.03;;
6149;SDS011;3106;42.670;23.318;2022-10-31T01:12:31;9.90;;;4.00;;
6149;SDS011;3106;42.670;23.318;2022-10-31T01:15:02;7.20;;;4.60;;
6149;SDS011;3106;42.670;23.318;2022-10-31T01:17:30;9.57;;;4.50;;
6149;SDS011;3106;42.670;23.318;2022-10-31T01:19:57;6.73;;;4.27;;
6149;SDS011;3106;42.670;23.318;2022-10-31T01:22:24;7.00;;;4.50;;
6149;SDS011;3106;42.670;23.318;2022-10-31T01:24:51;10.67;;;4.30;;
6149;SDS011;3106;42.670;23.318;2022-10-31T01:27:18;6.87;;;3.97;;
6149;SDS011;3106;42.670;23.318;2022-10-31T01:29:47;12.97;;;4.27;;
6149;SDS011;3106;42.670;23.318;2022-10-31T01:32:14;7.07;;;4.30;;
6149;SDS011;3106;42.670;23.318;2022-10-31T01:34:42;11.00;;;4.40;;
6149;SDS011;3106;42.670;23.318;2022-10-31T01:37:09;11.40;;;5.27;;
6149;SDS011;3106;42.670;23.318;2022-10-31T01:39:36;8.53;;;4.53;;
6149;SDS011;3106;42.670;23.318;2022-10-31T01:42:03;12.00;;;5.50;;
6149;SDS011;3106;42.670;23.318;2022-10-31T01:47:26;10.17;;;4.90;;
6149;SDS011;3106;42.670;23.318;2022-10-31T01:50:04;11.30;;;5.07;;
6149;SDS011;3106;42.670;23.318;2022-10-31T01:52:37;10.27;;;4.77;;
6149;SDS011;3106;42.670;23.318;2022-10-31T01:55:07;20.20;;;5.30;;
6149;SDS011;3106;42.670;23.318;2022-10-31T01:57:38;10.63;;;5.27;;
6149;SDS011;3106;42.670;23.318;2022-10-31T02:00:19;14.70;;;5.60;;
6149;SDS011;3106;42.670;23.318;2022-10-31T02:02:54;9.07;;;5.27;;
6149;SDS011;3106;42.670;23.318;2022-10-31T02:05:22;10.13;;;5.30;;
6149;SDS011;3106;42.670;23.318;2022-10-31T02:07:57;14.63;;;5.97;;
6149;SDS011;3106;42.670;23.318;2022-10-31T02:10:26;8.90;;;5.97;;
6149;SDS011;3106;42.670;23.318;2022-10-31T02:12:57;9.53;;;5.80;;
6149;SDS011;3106;42.670;23.318;2022-10-31T02:15:30;8.03;;;5.43;;
6149;SDS011;3106;42.670;23.318;2022-10-31T02:17:59;13.87;;;6.27;;
6149;SDS011;3106;42.670;23.318;2022-10-31T02:20:27;13.67;;;6.13;;
6149;SDS011;3106;42.670;23.318;2022-10-31T02:26:15;8.53;;;5.70;;
6149;SDS011;3106;42.670;23.318;2022-10-31T02:29:32;11.63;;;5.93;;
6149;SDS011;3106;42.670;23.318;2022-10-31T02:32:43;10.70;;;6.30;;
6149;SDS011;3106;42.670;23.318;2022-10-31T02:35:28;19.03;;;6.63;;
6149;SDS011;3106;42.670;23.318;2022-10-31T02:38:26;14.10;;;6.83;;
6149;SDS011;3106;42.670;23.318;2022-10-31T02:41:04;14.80;;;6.90;;
6149;SDS011;3106;42.670;23.318;2022-10-31T02:43:36;9.10;;;5.83;;
6149;SDS011;3106;42.670;23.318;2022-10-31T02:46:11;10.77;;;6.13;;
6149;SDS011;3106;42.670;23.318;2022-10-31T02:48:44;9.27;;;5.93;;
6149;SDS011;3106;42.670;23.318;2022-10-31T02:51:14;11.63;;;6.90;;
6149;SDS011;3106;42.670;23.318;2022-10-31T02:53:42;11.60;;;6.77;;
6149;SDS011;3106;42.670;23.318;2022-10-31T02:56:11;11.03;;;6.40;;
6149;SDS011;3106;42.670;23.318;2022-10-31T02:58:40;12.40;;;7.13;;
6149;SDS011;3106;42.670;23.318;2022-10-31T03:04:05;13.93;;;7.70;;
6149;SDS011;3106;42.670;23.318;2022-10-31T03:06:44;11.60;;;5.93;;
6149;SDS011;3106;42.670;23.318;2022-10-31T03:09:18;9.27;;;6.20;;
6149;SDS011;3106;42.670;23.318;2022-10-31T03:11:52;15.20;;;7.00;;
6149;SDS011;3106;42.670;23.318;2022-10-31T03:14:25;17.77;;;7.43;;
6149;SDS011;3106;42.670;23.318;2022-10-31T03:16:59;14.73;;;7.30;;
6149;SDS011;3106;42.670;23.318;2022-10-31T03:19:34;16.33;;;8.00;;
6149;SDS011;3106;42.670;23.318;2022-10-31T03:22:06;19.23;;;7.60;;
6149;SDS011;3106;42.670;23.318;2022-10-31T03:24:39;13.03;;;7.53;;
6149;SDS011;3106;42.670;23.318;2022-10-31T03:27:08;14.50;;;7.67;;
6149;SDS011;3106;42.670;23.318;2022-10-31T03:29:39;18.47;;;7.40;;
6149;SDS011;3106;42.670;23.318;2022-10-31T03:32:08;16.80;;;7.50;;
6149;SDS011;3106;42.670;23.318;2022-10-31T03:34:41;15.20;;;7.57;;
6149;SDS011;3106;42.670;23.318;2022-10-31T03:37:10;17.37;;;7.67;;
6149;SDS011;3106;42.670;23.318;2022-10-31T03:39:40;18.23;;;8.10;;
6149;SDS011;3106;42.670;23.318;2022-10-31T03:42:10;15.93;;;7.90;;
6149;SDS011;3106;42.670;23.318;2022-10-31T03:44:43;14.23;;;8.03;;
6149;SDS011;3106;42.670;23.318;2022-10-31T03:47:15;14.90;;;8.70;;
6149;SDS011;3106;42.670;23.318;2022-10-31T03:49:45;17.90;;;8.90;;
6149;SDS011;3106;42.670;23.318;2022-10-31T03:52:13;19.70;;;9.80;;
6149;SDS011;3106;42.670;23.318;2022-10-31T03:54:52;18.43;;;10.70;;
6149;SDS011;3106;42.670;23.318;2022-10-31T03:57:24;20.33;;;10.43;;
6149;SDS011;3106;42.670;23.318;2022-10-31T03:59:57;20.40;;;9.90;;
6149;SDS011;3106;42.670;23.318;2022-10-31T04:02:29;22.47;;;10.23;;
6149;SDS011;3106;42.670;23.318;2022-10-31T04:04:59;22.03;;;10.97;;
6149;SDS011;3106;42.670;23.318;2022-10-31T04:07:27;19.27;;;10.03;;
6149;SDS011;3106;42.670;23.318;2022-10-31T04:09:58;17.80;;;10.17;;
6149;SDS011;3106;42.670;23.318;2022-10-31T04:12:28;15.80;;;9.17;;
6149;SDS011;3106;42.670;23.318;2022-10-31T04:14:57;15.93;;;9.30;;
6149;SDS011;3106;42.670;23.318;2022-10-31T04:17:27;19.90;;;10.73;;
6149;SDS011;3106;42.670;23.318;2022-10-31T04:20:00;20.30;;;10.50;;
6149;SDS011;3106;42.670;23.318;2022-10-31T04:22:28;19.80;;;9.90;;
6149;SDS011;3106;42.670;23.318;2022-10-31T04:24:55;22.93;;;9.90;;
6149;SDS011;3106;42.670;23.318;2022-10-31T04:27:22;19.63;;;10.23;;
6149;SDS011;3106;42.670;23.318;2022-10-31T04:29:48;25.63;;;10.60;;
6149;SDS011;3106;42.670;23.318;2022-10-31T04:32:15;16.30;;;9.00;;
6149;SDS011;3106;42.670;23.318;2022-10-31T04:34:42;17.07;;;9.17;;
6149;SDS011;3106;42.670;23.318;2022-10-31T04:37:11;18.03;;;9.80;;
6149;SDS011;3106;42.670;23.318;2022-10-31T04:39:38;18.80;;;9.80;;
6149;SDS011;3106;42.670;23.318;2022-10-31T04:42:05;18.80;;;9.77;;
6149;SDS011;3106;42.670;23.318;2022-10-31T04:44:32;23.17;;;8.43;;
6149;SDS011;3106;42.670;23.318;2022-10-31T04:46:59;13.17;;;8.27;;
6149;SDS011;3106;42.670;23.318;2022-10-31T04:49:26;20.10;;;8.13;;
6149;SDS011;3106;42.670;23.318;2022-10-31T04:51:54;19.53;;;8.53;;
6149;SDS011;3106;42.670;23.318;2022-10-31T04:54:39;22.93;;;8.40;;
6149;SDS011;3106;42.670;23.318;2022-10-31T04:57:08;19.70;;;8.70;;
6149;SDS011;3106;42.670;23.318;2022-10-31T04:59:53;18.60;;;8.70;;
6149;SDS011;3106;42.670;23.318;2022-10-31T05:02:42;16.33;;;8.37;;
6149;SDS011;3106;42.670;23.318;2022-10-31T05:05:11;20.57;;;8.87;;
6149;SDS011;3106;42.670;23.318;2022-10-31T05:07:45;17.70;;;9.60;;
6149;SDS011;3106;42.670;23.318;2022-10-31T05:10:29;20.67;;;9.80;;
6149;SDS011;3106;42.670;23.318;2022-10-31T05:13:01;20.73;;;9.50;;
6149;SDS011;3106;42.670;23.318;2022-10-31T05:15:32;25.13;;;10.90;;
6149;SDS011;3106;42.670;23.318;2022-10-31T05:18:00;23.83;;;13.30;;
6149;SDS011;3106;42.670;23.318;2022-10-31T05:20:32;23.90;;;10.33;;
6149;SDS011;3106;42.670;23.318;2022-10-31T05:23:00;32.47;;;14.37;;
6149;SDS011;3106;42.670;23.318;2022-10-31T05:25:33;31.80;;;14.40;;
6149;SDS011;3106;42.670;23.318;2022-10-31T05:28:15;39.73;;;19.70;;
6149;SDS011;3106;42.670;23.318;2022-10-31T05:30:47;18.87;;;9.63;;
6149;SDS011;3106;42.670;23.318;2022-10-31T05:33:17;21.00;;;10.50;;
6149;SDS011;3106;42.670;23.318;2022-10-31T05:35:45;30.10;;;11.70;;
6149;SDS011;3106;42.670;23.318;2022-10-31T05:38:27;24.37;;;10.27;;
6149;SDS011;3106;42.670;23.318;2022-10-31T05:44:17;20.00;;;10.23;;
6149;SDS011;3106;42.670;23.318;2022-10-31T05:46:46;20.83;;;11.63;;
6149;SDS011;3106;42.670;23.318;2022-10-31T05:49:29;21.80;;;12.00;;
6149;SDS011;3106;42.670;23.318;2022-10-31T05:54:45;23.10;;;12.13;;
6149;SDS011;3106;42.670;23.318;2022-10-31T05:57:21;27.23;;;13.67;;
6149;SDS011;3106;42.670;23.318;2022-10-31T05:59:52;25.37;;;12.30;;
6149;SDS011;3106;42.670;23.318;2022-10-31T06:02:21;35.33;;;11.60;;
6149;SDS011;3106;42.670;23.318;2022-10-31T06:05:05;29.20;;;12.50;;
6149;SDS011;3106;42.670;23.318;2022-10-31T06:07:32;29.13;;;13.33;;
6149;SDS011;3106;42.670;23.318;2022-10-31T06:10:02;27.30;;;13.20;;
6149;SDS011;3106;42.670;23.318;2022-10-31T06:12:37;25.93;;;12.70;;
6149;SDS011;3106;42.670;23.318;2022-10-31T06:15:06;34.00;;;13.87;;
6149;SDS011;3106;42.670;23.318;2022-10-31T06:17:56;33.73;;;12.80;;
6149;SDS011;3106;42.670;23.318;2022-10-31T06:20:25;30.53;;;13.57;;
6149;SDS011;3106;42.670;23.318;2022-10-31T06:22:52;39.13;;;12.20;;
6149;SDS011;3106;42.670;23.318;2022-10-31T06:25:19;28.67;;;13.70;;
6149;SDS011;3106;42.670;23.318;2022-10-31T08:52:02;28.73;;;15.30;;
6149;SDS011;3106;42.670;23.318;2022-10-31T08:54:29;40.50;;;17.20;;
6149;SDS011;3106;42.670;23.318;2022-10-31T08:56:56;35.97;;;16.23;;
6149;SDS011;3106;42.670;23.318;2022-10-31T08:59:23;29.10;;;15.30;;
6149;SDS011;3106;42.670;23.318;2022-10-31T09:01:50;29.27;;;15.47;;
6149;SDS011;3106;42.670;23.318;2022-10-31T09:04:17;40.00;;;15.57;;
6149;SDS011;3106;42.670;23.318;2022-10-31T09:06:44;29.50;;;15.47;;
6149;SDS011;3106;42.670;23.318;2022-10-31T09:09:12;37.87;;;17.63;;
6149;SDS011;3106;42.670;23.318;2022-10-31T09:11:40;28.37;;;16.27;;
6149;SDS011;3106;42.670;23.318;2022-10-31T09:14:08;27.87;;;15.33;;
6149;SDS011;3106;42.670;23.318;2022-10-31T09:16:35;34.57;;;13.67;;
6149;SDS011;3106;42.670;23.318;2022-10-31T09:19:02;33.60;;;14.20;;
6149;SDS011;3106;42.670;23.318;2022-10-31T09:21:30;38.90;;;16.47;;
6149;SDS011;3106;42.670;23.318;2022-10-31T09:23:57;29.03;;;14.00;;
6149;SDS011;3106;42.670;23.318;2022-10-31T09:26:25;31.23;;;14.60;;
6149;SDS011;3106;42.670;23.318;2022-10-31T09:28:52;27.50;;;15.50;;
6149;SDS011;3106;42.670;23.318;2022-10-31T09:31:19;22.90;;;10.87;;
6149;SDS011;3106;42.670;23.318;2022-10-31T09:33:47;21.40;;;11.57;;
6149;SDS011;3106;42.670;23.318;2022-10-31T09:36:17;26.00;;;11.20;;
6149;SDS011;3106;42.670;23.318;2022-10-31T09:38:45;21.77;;;11.43;;
6149;SDS011;3106;42.670;23.318;2022-10-31T09:41:14;26.73;;;12.17;;
6149;SDS011;3106;42.670;23.318;2022-10-31T09:43:49;23.33;;;10.83;;
6149;SDS011;3106;42.670;23.318;2022-10-31T09:46:33;22.43;;;10.83;;
6149;SDS011;3106;42.670;23.318;2022-10-31T09:49:34;20.67;;;12.70;;
6149;SDS011;3106;42.670;23.318;2022-10-31T09:52:12;20.23;;;11.17;;
6149;SDS011;3106;42.670;23.318;2022-10-31T09:54:44;24.30;;;10.40;;
6149;SDS011;3106;42.670;23.318;2022-10-31T09:57:16;22.00;;;10.30;;
6149;SDS011;3106;42.670;23.318;2022-10-31T10:03:10;19.93;;;9.57;;
6149;SDS011;3106;42.670;23.318;2022-10-31T10:05:58;16.67;;;8.57;;
6149;SDS011;3106;42.670;23.318;2022-10-31T11:13:59;15.13;;;4.80;;
6149;SDS011;3106;42.670;23.318;2022-10-31T11:16:31;15.93;;;5.17;;
6149;SDS011;3106;42.670;23.318;2022-10-31T11:19:06;11.90;;;4.83;;
6149;SDS011;3106;42.670;23.318;2022-10-31T11:21:39;10.87;;;5.33;;
6149;SDS011;3106;42.670;23.318;2022-10-31T11:24:14;11.33;;;5.00;;
6149;SDS011;3106;42.670;23.318;2022-10-31T11:26:43;13.77;;;4.77;;
6149;SDS011;3106;42.670;23.318;2022-10-31T11:29:16;21.30;;;4.90;;
6149;SDS011;3106;42.670;23.318;2022-10-31T11:31:46;10.17;;;4.57;;
6149;SDS011;3106;42.670;23.318;2022-10-31T11:34:17;11.53;;;5.07;;
6149;SDS011;3106;42.670;23.318;2022-10-31T11:36:52;14.00;;;5.23;;
6149;SDS011;3106;42.670;23.318;2022-10-31T11:39:22;13.43;;;5.53;;
6149;SDS011;3106;42.670;23.318;2022-10-31T11:41:51;14.30;;;5.43;;
6149;SDS011;3106;42.670;23.318;2022-10-31T11:44:22;18.80;;;5.27;;
6149;SDS011;3106;42.670;23.318;2022-10-31T11:46:53;13.20;;;5.17;;
6149;SDS011;3106;42.670;23.318;2022-10-31T11:49:27;11.77;;;4.93;;
6149;SDS011;3106;42.670;23.318;2022-10-31T11:51:57;13.53;;;6.07;;
6149;SDS011;3106;42.670;23.318;2022-10-31T11:54:27;11.57;;;4.50;;
6149;SDS011;3106;42.670;23.318;2022-10-31T11:56:57;12.43;;;4.63;;
6149;SDS011;3106;42.670;23.318;2022-10-31T11:59:27;14.80;;;5.23;;
6149;SDS011;3106;42.670;23.318;2022-10-31T12:01:55;17.47;;;6.50;;
6149;SDS011;3106;42.670;23.318;2022-10-31T12:04:25;15.50;;;6.17;;
6149;SDS011;3106;42.670;23.318;2022-10-31T13:30:16;13.63;;;5.30;;
6149;SDS011;3106;42.670;23.318;2022-10-31T13:32:45;10.23;;;5.50;;
6149;SDS011;3106;42.670;23.318;2022-10-31T13:35:18;17.87;;;5.40;;
6149;SDS011;3106;42.670;23.318;2022-10-31T13:37:52;19.77;;;5.43;;
6149;SDS011;3106;42.670;23.318;2022-10-31T13:40:32;16.37;;;6.03;;
6149;SDS011;3106;42.670;23.318;2022-10-31T13:43:05;18.67;;;5.70;;
6149;SDS011;3106;42.670;23.318;2022-10-31T13:45:51;13.33;;;4.77;;
6149;SDS011;3106;42.670;23.318;2022-10-31T13:48:32;37.83;;;7.10;;
6149;SDS011;3106;42.670;23.318;2022-10-31T13:51:01;35.93;;;6.90;;
6149;SDS011;3106;42.670;23.318;2022-10-31T13:53:35;16.93;;;5.50;;
6149;SDS011;3106;42.670;23.318;2022-10-31T13:56:09;19.23;;;5.20;;
6149;SDS011;3106;42.670;23.318;2022-10-31T13:58:42;14.80;;;5.80;;
6149;SDS011;3106;42.670;23.318;2022-10-31T14:01:26;23.03;;;5.47;;
6149;SDS011;3106;42.670;23.318;2022-10-31T14:03:56;47.37;;;14.73;;
6149;SDS011;3106;42.670;23.318;2022-10-31T14:06:36;63.13;;;17.17;;
6149;SDS011;3106;42.670;23.318;2022-10-31T14:09:27;29.97;;;10.00;;
6149;SDS011;3106;42.670;23.318;2022-10-31T14:14:45;61.93;;;17.57;;
6149;SDS011;3106;42.670;23.318;2022-10-31T14:17:22;26.30;;;7.87;;
6149;SDS011;3106;42.670;23.318;2022-10-31T14:20:03;25.67;;;5.37;;
6149;SDS011;3106;42.670;23.318;2022-10-31T14:26:21;11.57;;;4.90;;
6149;SDS011;3106;42.670;23.318;2022-10-31T14:28:59;116.57;;;10.00;;
6149;SDS011;3106;42.670;23.318;2022-10-31T14:31:33;52.20;;;10.10;;
6149;SDS011;3106;42.670;23.318;2022-10-31T14:40:01;30.27;;;7.90;;
6149;SDS011;3106;42.670;23.318;2022-10-31T14:42:51;18.43;;;5.70;;
6149;SDS011;3106;42.670;23.318;2022-10-31T14:45:37;24.47;;;5.50;;
6149;SDS011;3106;42.670;23.318;2022-10-31T14:48:21;16.07;;;4.70;;
6149;SDS011;3106;42.670;23.318;2022-10-31T14:51:02;17.23;;;5.77;;
6149;SDS011;3106;42.670;23.318;2022-10-31T14:53:41;20.80;;;6.30;;
6149;SDS011;3106;42.670;23.318;2022-10-31T14:56:14;27.33;;;7.80;;
6149;SDS011;3106;42.670;23.318;2022-10-31T14:58:47;50.83;;;8.53;;
6149;SDS011;3106;42.670;23.318;2022-10-31T15:01:19;75.70;;;9.50;;
6149;SDS011;3106;42.670;23.318;2022-10-31T15:03:53;91.70;;;11.97;;
6149;SDS011;3106;42.670;23.318;2022-10-31T15:06:27;51.50;;;8.60;;
6149;SDS011;3106;42.670;23.318;2022-10-31T15:09:02;48.30;;;7.57;;
6149;SDS011;3106;42.670;23.318;2022-10-31T15:11:29;29.03;;;7.23;;
6149;SDS011;3106;42.670;23.318;2022-10-31T15:14:05;39.10;;;8.50;;
6149;SDS011;3106;42.670;23.318;2022-10-31T15:16:48;49.90;;;8.03;;
6149;SDS011;3106;42.670;23.318;2022-10-31T15:19:16;32.90;;;8.00;;
6149;SDS011;3106;42.670;23.318;2022-10-31T15:21:54;35.50;;;8.40;;
6149;SDS011;3106;42.670;23.318;2022-10-31T15:24:23;25.17;;;7.73;;
6149;SDS011;3106;42.670;23.318;2022-10-31T15:27:20;25.57;;;7.30;;
6149;SDS011;3106;42.670;23.318;2022-10-31T15:30:23;40.70;;;8.30;;
6149;SDS011;3106;42.670;23.318;2022-10-31T15:32:53;52.43;;;8.20;;
6149;SDS011;3106;42.670;23.318;2022-10-31T15:35:22;49.93;;;8.60;;
6149;SDS011;3106;42.670;23.318;2022-10-31T15:38:02;48.20;;;8.60;;
6149;SDS011;3106;42.670;23.318;2022-10-31T15:40:31;37.20;;;8.10;;
6149;SDS011;3106;42.670;23.318;2022-10-31T15:42:59;41.97;;;7.93;;
6149;SDS011;3106;42.670;23.318;2022-10-31T15:45:28;48.97;;;8.07;;
6149;SDS011;3106;42.670;23.318;2022-10-31T15:47:57;33.60;;;6.83;;
6149;SDS011;3106;42.670;23.318;2022-10-31T15:50:27;63.40;;;7.87;;
6149;SDS011;3106;42.670;23.318;2022-10-31T15:52:59;30.97;;;7.50;;
6149;SDS011;3106;42.670;23.318;2022-10-31T15:55:28;41.27;;;8.07;;
6149;SDS011;3106;42.670;23.318;2022-10-31T15:57:58;32.90;;;9.40;;
6149;SDS011;3106;42.670;23.318;2022-10-31T16:00:31;27.17;;;8.40;;
6149;SDS011;3106;42.670;23.318;2022-10-31T16:03:06;42.27;;;7.43;;
6149;SDS011;3106;42.670;23.318;2022-10-31T16:05:37;23.80;;;6.90;;
6149;SDS011;3106;42.670;23.318;2022-10-31T16:10:52;96.70;;;40.93;;
6149;SDS011;3106;42.670;23.318;2022-10-31T16:13:22;24.20;;;7.33;;
6149;SDS011;3106;42.670;23.318;2022-10-31T16:15:54;32.70;;;6.33;;
6149;SDS011;3106;42.670;23.318;2022-10-31T16:18:23;43.27;;;8.83;;
6149;SDS011;3106;42.670;23.318;2022-10-31T16:20:51;21.63;;;5.50;;
6149;SDS011;3106;42.670;23.318;2022-10-31T16:23:20;37.43;;;6.33;;
6149;SDS011;3106;42.670;23.318;2022-10-31T16:25:50;29.03;;;6.63;;
6149;SDS011;3106;42.670;23.318;2022-10-31T16:28:20;34.93;;;5.90;;
6149;SDS011;3106;42.670;23.318;2022-10-31T16:30:51;21.13;;;5.37;;
6149;SDS011;3106;42.670;23.318;2022-10-31T16:33:23;22.40;;;5.50;;
6149;SDS011;3106;42.670;23.318;2022-10-31T16:35:56;17.03;;;5.90;;
6149;SDS011;3106;42.670;23.318;2022-10-31T16:38:27;34.10;;;7.27;;
6149;SDS011;3106;42.670;23.318;2022-10-31T16:40:55;35.13;;;7.97;;
6149;SDS011;3106;42.670;23.318;2022-10-31T16:43:22;27.90;;;6.50;;
6149;SDS011;3106;42.670;23.318;2022-10-31T16:45:50;29.73;;;7.20;;
6149;SDS011;3106;42.670;23.318;2022-10-31T16:48:18;36.60;;;7.10;;
6149;SDS011;3106;42.670;23.318;2022-10-31T16:50:47;39.17;;;7.23;;
6149;SDS011;3106;42.670;23.318;2022-10-31T16:53:15;38.37;;;7.53;;
6149;SDS011;3106;42.670;23.318;2022-10-31T16:55:44;30.97;;;7.93;;
6149;SDS011;3106;42.670;23.318;2022-10-31T16:58:16;36.90;;;7.50;;
6149;SDS011;3106;42.670;23.318;2022-10-31T17:00:45;30.70;;;8.90;;
6149;SDS011;3106;42.670;23.318;2022-10-31T17:03:12;42.47;;;7.17;;
6149;SDS011;3106;42.670;23.318;2022-10-31T17:05:39;26.87;;;10.67;;
6149;SDS011;3106;42.670;23.318;2022-10-31T17:08:05;38.30;;;10.00;;
6149;SDS011;3106;42.670;23.318;2022-10-31T17:10:33;31.07;;;9.93;;
6149;SDS011;3106;42.670;23.318;2022-10-31T17:13:00;32.23;;;9.07;;
6149;SDS011;3106;42.670;23.318;2022-10-31T17:15:34;33.97;;;9.40;;
6149;SDS011;3106;42.670;23.318;2022-10-31T17:18:05;49.00;;;10.33;;
6149;SDS011;3106;42.670;23.318;2022-10-31T17:20:31;35.20;;;10.00;;
6149;SDS011;3106;42.670;23.318;2022-10-31T17:22:59;63.17;;;20.10;;
6149;SDS011;3106;42.670;23.318;2022-10-31T17:25:26;43.10;;;8.73;;
6149;SDS011;3106;42.670;23.318;2022-10-31T17:27:56;13.07;;;5.60;;
6149;SDS011;3106;42.670;23.318;2022-10-31T17:30:24;16.90;;;7.20;;
6149;SDS011;3106;42.670;23.318;2022-10-31T17:32:53;23.53;;;10.03;;
6149;SDS011;3106;42.670;23.318;2022-10-31T17:35:20;41.63;;;13.60;;
6149;SDS011;3106;42.670;23.318;2022-10-31T17:37:47;36.90;;;13.47;;
6149;SDS011;3106;42.670;23.318;2022-10-31T17:40:15;38.67;;;12.90;;
6149;SDS011;3106;42.670;23.318;2022-10-31T17:42:47;29.93;;;12.00;;
6149;SDS011;3106;42.670;23.318;2022-10-31T17:45:23;28.90;;;10.67;;
6149;SDS011;3106;42.670;23.318;2022-10-31T17:47:52;33.10;;;9.27;;
6149;SDS011;3106;42.670;23.318;2022-10-31T17:50:21;18.73;;;8.23;;
6149;SDS011;3106;42.670;23.318;2022-10-31T17:52:50;23.60;;;8.20;;
6149;SDS011;3106;42.670;23.318;2022-10-31T17:55:17;21.00;;;8.77;;
6149;SDS011;3106;42.670;23.318;2022-10-31T17:57:44;30.40;;;7.80;;
6149;SDS011;3106;42.670;23.318;2022-10-31T18:00:12;22.57;;;8.17;;
6149;SDS011;3106;42.670;23.318;2022-10-31T18:02:41;31.70;;;10.23;;
6149;SDS011;3106;42.670;23.318;2022-10-31T18:05:09;40.57;;;9.53;;
6149;SDS011;3106;42.670;23.318;2022-10-31T18:07:36;31.73;;;9.13;;
6149;SDS011;3106;42.670;23.318;2022-10-31T18:10:04;26.63;;;8.83;;
6149;SDS011;3106;42.670;23.318;2022-10-31T18:12:33;24.37;;;9.10;;
6149;SDS011;3106;42.670;23.318;2022-10-31T18:15:01;25.87;;;9.30;;
6149;SDS011;3106;42.670;23.318;2022-10-31T18:17:28;24.87;;;9.40;;
6149;SDS011;3106;42.670;23.318;2022-10-31T18:19:57;38.80;;;9.27;;
6149;SDS011;3106;42.670;23.318;2022-10-31T18:22:25;29.37;;;9.13;;
6149;SDS011;3106;42.670;23.318;2022-10-31T18:24:52;29.57;;;9.60;;
6149;SDS011;3106;42.670;23.318;2022-10-31T18:27:19;32.17;;;9.93;;
6149;SDS011;3106;42.670;23.318;2022-10-31T18:29:51;25.60;;;8.53;;
6149;SDS011;3106;42.670;23.318;2022-10-31T18:32:18;21.53;;;9.50;;
6149;SDS011;3106;42.670;23.318;2022-10-31T18:34:47;28.13;;;9.70;;
6149;SDS011;3106;42.670;23.318;2022-10-31T18:37:14;17.37;;;6.80;;
6149;SDS011;3106;42.670;23.318;2022-10-31T18:39:42;32.97;;;7.63;;
6149;SDS011;3106;42.670;23.318;2022-10-31T18:42:10;21.60;;;6.63;;
6149;SDS011;3106;42.670;23.318;2022-10-31T18:44:37;13.73;;;4.97;;
6149;SDS011;3106;42.670;23.318;2022-10-31T18:47:04;18.30;;;5.40;;
6149;SDS011;3106;42.670;23.318;2022-10-31T18:49:30;24.10;;;5.53;;
6149;SDS011;3106;42.670;23.318;2022-10-31T18:51:57;16.93;;;6.07;;
6149;SDS011;3106;42.670;23.318;2022-10-31T18:54:24;31.73;;;9.00;;
6149;SDS011;3106;42.670;23.318;2022-10-31T18:56:55;19.90;;;6.93;;
6149;SDS011;3106;42.670;23.318;2022-10-31T18:59:21;25.17;;;7.97;;
6149;SDS011;3106;42.670;23.318;2022-10-31T19:01:48;40.43;;;8.57;;
6149;SDS011;3106;42.670;23.318;2022-10-31T19:04:15;30.17;;;8.60;;
6149;SDS011;3106;42.670;23.318;2022-10-31T19:06:42;30.80;;;8.73;;
6149;SDS011;3106;42.670;23.318;2022-10-31T19:09:09;21.10;;;7.60;;
6149;SDS011;3106;42.670;23.318;2022-10-31T19:11:36;28.43;;;8.80;;
6149;SDS011;3106;42.670;23.318;2022-10-31T19:14:05;27.07;;;8.47;;
6149;SDS011;3106;42.670;23.318;2022-10-31T19:16:35;20.83;;;8.30;;
6149;SDS011;3106;42.670;23.318;2022-10-31T19:19:02;23.53;;;7.90;;
6149;SDS011;3106;42.670;23.318;2022-10-31T19:21:29;22.97;;;7.73;;
6149;SDS011;3106;42.670;23.318;2022-10-31T19:23:56;25.43;;;7.70;;
6149;SDS011;3106;42.670;23.318;2022-10-31T19:26:24;28.57;;;8.00;;
6149;SDS011;3106;42.670;23.318;2022-10-31T19:28:54;19.60;;;7.50;;
6149;SDS011;3106;42.670;23.318;2022-10-31T19:31:23;25.30;;;8.43;;
6149;SDS011;3106;42.670;23.318;2022-10-31T19:33:50;22.73;;;7.60;;
6149;SDS011;3106;42.670;23.318;2022-10-31T19:36:17;19.47;;;7.47;;
6149;SDS011;3106;42.670;23.318;2022-10-31T19:38:45;23.93;;;8.30;;
6149;SDS011;3106;42.670;23.318;2022-10-31T19:41:14;24.43;;;8.40;;
6149;SDS011;3106;42.670;23.318;2022-10-31T19:43:43;23.43;;;8.33;;
6149;SDS011;3106;42.670;23.318;2022-10-31T19:46:10;23.33;;;7.80;;
6149;SDS011;3106;42.670;23.318;2022-10-31T19:48:40;19.63;;;7.17;;
6149;SDS011;3106;42.670;23.318;2022-10-31T19:51:08;19.43;;;7.50;;
6149;SDS011;3106;42.670;23.318;2022-10-31T19:53:36;21.13;;;7.53;;
6149;SDS011;3106;42.670;23.318;2022-10-31T19:56:09;21.73;;;7.87;;
6149;SDS011;3106;42.670;23.318;2022-10-31T19:58:38;25.93;;;7.03;;
6149;SDS011;3106;42.670;23.318;2022-10-31T20:01:06;19.10;;;7.50;;
6149;SDS011;3106;42.670;23.318;2022-10-31T20:03:33;19.67;;;8.87;;
6149;SDS011;3106;42.670;23.318;2022-10-31T20:06:04;25.27;;;8.13;;
6149;SDS011;3106;42.670;23.318;2022-10-31T20:08:32;19.33;;;8.47;;
6149;SDS011;3106;42.670;23.318;2022-10-31T20:11:01;15.23;;;7.97;;
6149;SDS011;3106;42.670;23.318;2022-10-31T20:13:29;22.97;;;8.20;;
6149;SDS011;3106;42.670;23.318;2022-10-31T20:15:57;24.77;;;8.83;;
6149;SDS011;3106;42.670;23.318;2022-10-31T20:18:25;39.33;;;10.27;;
6149;SDS011;3106;42.670;23.318;2022-10-31T20:20:53;22.43;;;8.70;;
6149;SDS011;3106;42.670;23.318;2022-10-31T20:23:27;28.03;;;9.50;;
6149;SDS011;3106;42.670;23.318;2022-10-31T20:25:56;29.90;;;9.40;;
6149;SDS011;3106;42.670;23.318;2022-10-31T20:28:25;27.33;;;9.47;;
6149;SDS011;3106;42.670;23.318;2022-10-31T20:30:52;30.23;;;9.63;;
6149;SDS011;3106;42.670;23.318;2022-10-31T20:33:19;23.60;;;9.97;;
6149;SDS011;3106;42.670;23.318;2022-10-31T20:35:46;25.57;;;9.87;;
6149;SDS011;3106;42.670;23.318;2022-10-31T20:38:13;29.73;;;9.50;;